Terminal Aerodrome Forecast
Issued by NWS

Home | Current Version | Previous Version | Text Only | Print | Product List | Glossary On
Versions: 1 2 3 4 5 6 7 8 9 10 11 12 13 14 15 16 17 18 19 20 21 22 23 24 25 26 27 28
000
FTUS43 KFGF 201720
TAFDVL
TAF
KDVL 201720Z 2018/2118 16008KT 4SM BR OVC003
      TEMPO 2019/2022 1SM BR OVC009
     FM202200 15007KT 3/4SM BR OVC003
     FM211200 12008KT 1 1/2SM BR OVC003=

USA.gov is the U.S. government's official web portal to all federal, state and local government web resources and services.